sensor_id;sensor_type;location;lat;lon;timestamp;P1;durP1;ratioP1;P2;durP2;ratioP2
28577;SDS011;15769;52.248;15.818;2024-03-29T00:03:58;11.95;;;5.65;;
28577;SDS011;15769;52.248;15.818;2024-03-29T00:09:01;8.37;;;4.33;;
28577;SDS011;15769;52.248;15.818;2024-03-29T00:14:04;8.07;;;4.15;;
28577;SDS011;15769;52.248;15.818;2024-03-29T00:19:06;7.63;;;3.78;;
28577;SDS011;15769;52.248;15.818;2024-03-29T00:24:08;6.20;;;3.80;;
28577;SDS011;15769;52.248;15.818;2024-03-29T00:29:11;4.67;;;2.77;;
28577;SDS011;15769;52.248;15.818;2024-03-29T00:34:13;3.63;;;2.50;;
28577;SDS011;15769;52.248;15.818;2024-03-29T00:39:15;5.13;;;2.47;;
28577;SDS011;15769;52.248;15.818;2024-03-29T00:44:17;4.05;;;2.53;;
28577;SDS011;15769;52.248;15.818;2024-03-29T00:49:19;2.50;;;2.30;;
28577;SDS011;15769;52.248;15.818;2024-03-29T00:54:22;2.55;;;1.85;;
28577;SDS011;15769;52.248;15.818;2024-03-29T00:59:33;2.80;;;2.28;;
28577;SDS011;15769;52.248;15.818;2024-03-29T01:04:35;2.95;;;2.20;;
28577;SDS011;15769;52.248;15.818;2024-03-29T01:09:38;2.75;;;2.00;;
28577;SDS011;15769;52.248;15.818;2024-03-29T01:14:41;5.15;;;3.47;;
28577;SDS011;15769;52.248;15.818;2024-03-29T01:19:43;5.10;;;3.78;;
28577;SDS011;15769;52.248;15.818;2024-03-29T01:24:46;4.75;;;3.60;;
28577;SDS011;15769;52.248;15.818;2024-03-29T01:29:48;3.88;;;2.50;;
28577;SDS011;15769;52.248;15.818;2024-03-29T01:34:50;2.53;;;2.05;;
28577;SDS011;15769;52.248;15.818;2024-03-29T01:39:52;3.78;;;1.92;;
28577;SDS011;15769;52.248;15.818;2024-03-29T01:44:54;2.15;;;1.55;;
28577;SDS011;15769;52.248;15.818;2024-03-29T01:49:56;1.45;;;1.27;;
28577;SDS011;15769;52.248;15.818;2024-03-29T02:00:12;1.10;;;1.00;;
28577;SDS011;15769;52.248;15.818;2024-03-29T02:05:50;1.63;;;1.00;;
28577;SDS011;15769;52.248;15.818;2024-03-29T02:11:22;0.75;;;0.75;;
28577;SDS011;15769;52.248;15.818;2024-03-29T02:16:32;1.30;;;0.80;;
28577;SDS011;15769;52.248;15.818;2024-03-29T02:22:02;0.70;;;0.70;;
28577;SDS011;15769;52.248;15.818;2024-03-29T02:27:07;0.95;;;0.77;;
28577;SDS011;15769;52.248;15.818;2024-03-29T02:32:09;0.77;;;0.77;;
28577;SDS011;15769;52.248;15.818;2024-03-29T02:37:15;0.70;;;0.70;;
28577;SDS011;15769;52.248;15.818;2024-03-29T02:42:18;0.98;;;0.77;;
28577;SDS011;15769;52.248;15.818;2024-03-29T02:47:22;0.70;;;0.70;;
28577;SDS011;15769;52.248;15.818;2024-03-29T02:52:25;1.42;;;0.80;;
28577;SDS011;15769;52.248;15.818;2024-03-29T02:57:27;2.10;;;1.07;;
28577;SDS011;15769;52.248;15.818;2024-03-29T03:02:29;1.27;;;0.80;;
28577;SDS011;15769;52.248;15.818;2024-03-29T03:07:32;2.13;;;0.80;;
28577;SDS011;15769;52.248;15.818;2024-03-29T03:12:52;2.13;;;1.02;;
28577;SDS011;15769;52.248;15.818;2024-03-29T03:17:54;3.05;;;1.40;;
28577;SDS011;15769;52.248;15.818;2024-03-29T03:22:57;1.95;;;1.40;;
28577;SDS011;15769;52.248;15.818;2024-03-29T03:27:59;1.85;;;1.60;;
28577;SDS011;15769;52.248;15.818;2024-03-29T03:33:01;2.00;;;1.35;;
28577;SDS011;15769;52.248;15.818;2024-03-29T03:38:03;1.65;;;1.50;;
28577;SDS011;15769;52.248;15.818;2024-03-29T03:43:06;2.85;;;1.70;;
28577;SDS011;15769;52.248;15.818;2024-03-29T03:48:09;2.63;;;1.52;;
28577;SDS011;15769;52.248;15.818;2024-03-29T03:53:12;2.97;;;1.85;;
28577;SDS011;15769;52.248;15.818;2024-03-29T03:58:14;2.95;;;1.55;;
28577;SDS011;15769;52.248;15.818;2024-03-29T04:03:16;4.90;;;2.03;;
28577;SDS011;15769;52.248;15.818;2024-03-29T04:08:19;4.82;;;2.60;;
28577;SDS011;15769;52.248;15.818;2024-03-29T04:13:22;8.77;;;4.70;;
28577;SDS011;15769;52.248;15.818;2024-03-29T04:18:24;8.32;;;4.38;;
28577;SDS011;15769;52.248;15.818;2024-03-29T04:23:27;5.50;;;4.07;;
28577;SDS011;15769;52.248;15.818;2024-03-29T04:28:30;3.53;;;2.78;;
28577;SDS011;15769;52.248;15.818;2024-03-29T04:33:32;3.97;;;2.72;;
28577;SDS011;15769;52.248;15.818;2024-03-29T04:38:34;3.33;;;2.47;;
28577;SDS011;15769;52.248;15.818;2024-03-29T04:43:39;3.42;;;2.33;;
28577;SDS011;15769;52.248;15.818;2024-03-29T04:48:45;2.88;;;2.47;;
28577;SDS011;15769;52.248;15.818;2024-03-29T04:53:48;4.85;;;3.17;;
28577;SDS011;15769;52.248;15.818;2024-03-29T04:58:52;9.85;;;5.78;;
28577;SDS011;15769;52.248;15.818;2024-03-29T05:03:57;9.70;;;5.93;;
28577;SDS011;15769;52.248;15.818;2024-03-29T05:09:00;8.77;;;5.07;;
28577;SDS011;15769;52.248;15.818;2024-03-29T05:14:04;9.20;;;5.75;;
28577;SDS011;15769;52.248;15.818;2024-03-29T05:19:08;9.55;;;5.40;;
28577;SDS011;15769;52.248;15.818;2024-03-29T05:29:30;7.60;;;4.57;;
28577;SDS011;15769;52.248;15.818;2024-03-29T05:34:55;8.05;;;4.68;;
28577;SDS011;15769;52.248;15.818;2024-03-29T05:40:01;8.55;;;4.95;;
28577;SDS011;15769;52.248;15.818;2024-03-29T05:45:22;10.23;;;5.60;;
28577;SDS011;15769;52.248;15.818;2024-03-29T06:08:23;11.82;;;6.45;;
28577;SDS011;15769;52.248;15.818;2024-03-29T06:13:31;15.05;;;6.82;;
28577;SDS011;15769;52.248;15.818;2024-03-29T06:23:58;10.70;;;6.20;;
28577;SDS011;15769;52.248;15.818;2024-03-29T06:29:03;15.20;;;7.65;;
28577;SDS011;15769;52.248;15.818;2024-03-29T06:34:09;15.88;;;8.05;;
28577;SDS011;15769;52.248;15.818;2024-03-29T06:39:11;12.67;;;6.90;;
28577;SDS011;15769;52.248;15.818;2024-03-29T06:44:14;12.50;;;6.50;;
28577;SDS011;15769;52.248;15.818;2024-03-29T06:49:16;13.88;;;7.60;;
28577;SDS011;15769;52.248;15.818;2024-03-29T06:54:25;16.23;;;7.60;;
28577;SDS011;15769;52.248;15.818;2024-03-29T06:59:30;15.80;;;7.03;;
28577;SDS011;15769;52.248;15.818;2024-03-29T07:04:35;11.23;;;5.10;;
28577;SDS011;15769;52.248;15.818;2024-03-29T07:09:40;7.68;;;4.80;;
28577;SDS011;15769;52.248;15.818;2024-03-29T07:15:08;10.88;;;5.78;;
28577;SDS011;15769;52.248;15.818;2024-03-29T07:20:14;12.85;;;9.00;;
28577;SDS011;15769;52.248;15.818;2024-03-29T07:25:24;7.28;;;4.72;;
28577;SDS011;15769;52.248;15.818;2024-03-29T07:30:38;5.60;;;3.33;;
28577;SDS011;15769;52.248;15.818;2024-03-29T07:36:07;8.02;;;4.50;;
28577;SDS011;15769;52.248;15.818;2024-03-29T07:41:49;7.40;;;4.65;;
28577;SDS011;15769;52.248;15.818;2024-03-29T07:47:19;7.82;;;3.97;;
28577;SDS011;15769;52.248;15.818;2024-03-29T07:52:24;7.75;;;5.20;;
28577;SDS011;15769;52.248;15.818;2024-03-29T07:57:31;9.85;;;5.25;;
28577;SDS011;15769;52.248;15.818;2024-03-29T08:03:06;7.53;;;4.00;;
28577;SDS011;15769;52.248;15.818;2024-03-29T08:08:12;8.75;;;4.32;;
28577;SDS011;15769;52.248;15.818;2024-03-29T08:13:14;9.90;;;4.30;;
28577;SDS011;15769;52.248;15.818;2024-03-29T08:18:19;5.57;;;3.05;;
28577;SDS011;15769;52.248;15.818;2024-03-29T08:23:22;4.50;;;2.70;;
28577;SDS011;15769;52.248;15.818;2024-03-29T08:28:38;4.72;;;2.30;;
28577;SDS011;15769;52.248;15.818;2024-03-29T08:33:42;3.38;;;2.38;;
28577;SDS011;15769;52.248;15.818;2024-03-29T08:38:46;4.05;;;2.42;;
28577;SDS011;15769;52.248;15.818;2024-03-29T08:43:49;5.07;;;2.50;;
28577;SDS011;15769;52.248;15.818;2024-03-29T08:48:52;4.72;;;3.35;;
28577;SDS011;15769;52.248;15.818;2024-03-29T08:53:55;4.60;;;2.88;;
28577;SDS011;15769;52.248;15.818;2024-03-29T08:58:59;4.32;;;3.33;;
28577;SDS011;15769;52.248;15.818;2024-03-29T09:04:04;8.77;;;6.35;;
28577;SDS011;15769;52.248;15.818;2024-03-29T09:09:09;6.80;;;3.72;;
28577;SDS011;15769;52.248;15.818;2024-03-29T09:14:11;4.23;;;2.67;;
28577;SDS011;15769;52.248;15.818;2024-03-29T09:19:14;6.60;;;2.60;;
28577;SDS011;15769;52.248;15.818;2024-03-29T09:24:16;4.30;;;2.60;;
28577;SDS011;15769;52.248;15.818;2024-03-29T09:29:18;6.55;;;3.33;;
28577;SDS011;15769;52.248;15.818;2024-03-29T09:34:22;6.68;;;2.22;;
28577;SDS011;15769;52.248;15.818;2024-03-29T09:39:24;4.65;;;2.55;;
28577;SDS011;15769;52.248;15.818;2024-03-29T09:44:26;3.60;;;2.40;;
28577;SDS011;15769;52.248;15.818;2024-03-29T09:49:42;2.30;;;1.70;;
28577;SDS011;15769;52.248;15.818;2024-03-29T09:55:14;2.72;;;1.85;;
28577;SDS011;15769;52.248;15.818;2024-03-29T10:00:28;4.18;;;2.28;;
28577;SDS011;15769;52.248;15.818;2024-03-29T10:05:38;2.83;;;1.90;;
28577;SDS011;15769;52.248;15.818;2024-03-29T10:10:42;7.18;;;4.45;;
28577;SDS011;15769;52.248;15.818;2024-03-29T10:15:46;2.33;;;2.08;;
28577;SDS011;15769;52.248;15.818;2024-03-29T10:21:06;3.97;;;2.10;;
28577;SDS011;15769;52.248;15.818;2024-03-29T10:26:16;4.32;;;2.53;;
28577;SDS011;15769;52.248;15.818;2024-03-29T10:31:45;6.30;;;4.07;;
28577;SDS011;15769;52.248;15.818;2024-03-29T10:42:38;7.30;;;3.50;;
28577;SDS011;15769;52.248;15.818;2024-03-29T10:47:46;10.15;;;5.03;;
28577;SDS011;15769;52.248;15.818;2024-03-29T10:52:48;20.90;;;9.50;;
28577;SDS011;15769;52.248;15.818;2024-03-29T10:57:51;14.45;;;8.10;;
28577;SDS011;15769;52.248;15.818;2024-03-29T11:02:57;10.23;;;6.03;;
28577;SDS011;15769;52.248;15.818;2024-03-29T11:08:05;7.30;;;3.95;;
28577;SDS011;15769;52.248;15.818;2024-03-29T11:18:28;5.72;;;3.20;;
28577;SDS011;15769;52.248;15.818;2024-03-29T11:23:35;7.50;;;4.20;;
28577;SDS011;15769;52.248;15.818;2024-03-29T11:28:38;9.18;;;4.78;;
28577;SDS011;15769;52.248;15.818;2024-03-29T11:33:45;9.13;;;4.38;;
28577;SDS011;15769;52.248;15.818;2024-03-29T11:38:48;8.40;;;3.45;;
28577;SDS011;15769;52.248;15.818;2024-03-29T11:43:54;9.57;;;3.72;;
28577;SDS011;15769;52.248;15.818;2024-03-29T11:49:03;8.20;;;3.30;;
28577;SDS011;15769;52.248;15.818;2024-03-29T11:54:09;5.70;;;2.53;;
28577;SDS011;15769;52.248;15.818;2024-03-29T11:59:12;5.35;;;3.10;;
28577;SDS011;15769;52.248;15.818;2024-03-29T12:09:38;7.17;;;3.67;;
28577;SDS011;15769;52.248;15.818;2024-03-29T12:19:46;10.48;;;6.15;;
28577;SDS011;15769;52.248;15.818;2024-03-29T12:24:50;24.70;;;21.65;;
28577;SDS011;15769;52.248;15.818;2024-03-29T12:29:54;9.68;;;7.43;;
28577;SDS011;15769;52.248;15.818;2024-03-29T12:35:05;6.60;;;4.10;;
28577;SDS011;15769;52.248;15.818;2024-03-29T12:40:21;9.63;;;5.82;;
28577;SDS011;15769;52.248;15.818;2024-03-29T12:51:00;9.98;;;5.57;;
28577;SDS011;15769;52.248;15.818;2024-03-29T12:56:03;6.10;;;3.55;;
28577;SDS011;15769;52.248;15.818;2024-03-29T13:01:11;8.73;;;5.50;;
28577;SDS011;15769;52.248;15.818;2024-03-29T13:06:14;13.32;;;5.80;;
28577;SDS011;15769;52.248;15.818;2024-03-29T13:11:17;7.55;;;4.60;;
28577;SDS011;15769;52.248;15.818;2024-03-29T13:16:21;4.03;;;1.80;;
28577;SDS011;15769;52.248;15.818;2024-03-29T13:21:23;3.60;;;1.40;;
28577;SDS011;15769;52.248;15.818;2024-03-29T13:26:32;3.58;;;1.30;;
28577;SDS011;15769;52.248;15.818;2024-03-29T13:31:41;2.25;;;1.30;;
28577;SDS011;15769;52.248;15.818;2024-03-29T13:36:47;1.90;;;1.40;;
28577;SDS011;15769;52.248;15.818;2024-03-29T13:41:56;3.03;;;0.98;;
28577;SDS011;15769;52.248;15.818;2024-03-29T13:47:02;1.67;;;1.00;;
28577;SDS011;15769;52.248;15.818;2024-03-29T13:52:04;2.22;;;1.27;;
28577;SDS011;15769;52.248;15.818;2024-03-29T13:57:10;3.00;;;1.35;;
28577;SDS011;15769;52.248;15.818;2024-03-29T14:02:28;4.43;;;1.30;;
28577;SDS011;15769;52.248;15.818;2024-03-29T14:07:40;2.47;;;1.20;;
28577;SDS011;15769;52.248;15.818;2024-03-29T14:12:45;5.55;;;2.85;;
28577;SDS011;15769;52.248;15.818;2024-03-29T14:18:03;65.78;;;44.75;;
28577;SDS011;15769;52.248;15.818;2024-03-29T14:23:26;31.35;;;16.95;;
28577;SDS011;15769;52.248;15.818;2024-03-29T14:28:34;31.63;;;18.30;;
28577;SDS011;15769;52.248;15.818;2024-03-29T14:33:50;38.65;;;23.55;;
28577;SDS011;15769;52.248;15.818;2024-03-29T14:39:02;19.50;;;11.80;;
28577;SDS011;15769;52.248;15.818;2024-03-29T14:44:18;7.15;;;3.85;;
28577;SDS011;15769;52.248;15.818;2024-03-29T14:49:26;6.43;;;3.22;;
28577;SDS011;15769;52.248;15.818;2024-03-29T14:55:02;3.22;;;1.65;;
28577;SDS011;15769;52.248;15.818;2024-03-29T15:00:07;6.50;;;5.50;;
28577;SDS011;15769;52.248;15.818;2024-03-29T15:05:28;4.53;;;2.60;;
28577;SDS011;15769;52.248;15.818;2024-03-29T15:10:37;4.75;;;2.70;;
28577;SDS011;15769;52.248;15.818;2024-03-29T15:16:12;6.05;;;3.33;;
28577;SDS011;15769;52.248;15.818;2024-03-29T15:21:21;9.73;;;6.13;;
28577;SDS011;15769;52.248;15.818;2024-03-29T15:26:51;7.00;;;4.43;;
28577;SDS011;15769;52.248;15.818;2024-03-29T15:32:01;11.00;;;7.88;;
28577;SDS011;15769;52.248;15.818;2024-03-29T15:37:06;7.95;;;5.38;;
28577;SDS011;15769;52.248;15.818;2024-03-29T15:42:27;3.28;;;2.20;;
28577;SDS011;15769;52.248;15.818;2024-03-29T15:47:30;1.90;;;1.50;;
28577;SDS011;15769;52.248;15.818;2024-03-29T15:52:32;2.90;;;1.60;;
28577;SDS011;15769;52.248;15.818;2024-03-29T15:57:33;6.65;;;3.10;;
28577;SDS011;15769;52.248;15.818;2024-03-29T16:02:37;6.57;;;4.57;;
28577;SDS011;15769;52.248;15.818;2024-03-29T16:07:48;13.63;;;6.50;;
28577;SDS011;15769;52.248;15.818;2024-03-29T16:12:54;7.70;;;4.07;;
28577;SDS011;15769;52.248;15.818;2024-03-29T16:18:01;11.85;;;6.40;;
28577;SDS011;15769;52.248;15.818;2024-03-29T16:23:21;21.10;;;10.93;;
28577;SDS011;15769;52.248;15.818;2024-03-29T16:28:32;18.50;;;9.60;;
28577;SDS011;15769;52.248;15.818;2024-03-29T16:33:42;16.08;;;9.65;;
28577;SDS011;15769;52.248;15.818;2024-03-29T16:38:47;12.18;;;8.02;;
28577;SDS011;15769;52.248;15.818;2024-03-29T16:44:28;17.90;;;9.35;;
28577;SDS011;15769;52.248;15.818;2024-03-29T16:49:30;17.35;;;10.45;;
28577;SDS011;15769;52.248;15.818;2024-03-29T16:54:32;16.15;;;8.98;;
28577;SDS011;15769;52.248;15.818;2024-03-29T16:59:35;13.25;;;7.18;;
28577;SDS011;15769;52.248;15.818;2024-03-29T17:04:38;14.02;;;7.60;;
28577;SDS011;15769;52.248;15.818;2024-03-29T17:09:40;15.65;;;9.30;;
28577;SDS011;15769;52.248;15.818;2024-03-29T17:14:43;16.08;;;8.95;;
28577;SDS011;15769;52.248;15.818;2024-03-29T17:19:53;19.20;;;10.60;;
28577;SDS011;15769;52.248;15.818;2024-03-29T17:25:01;21.92;;;12.43;;
28577;SDS011;15769;52.248;15.818;2024-03-29T17:30:05;25.95;;;14.30;;
28577;SDS011;15769;52.248;15.818;2024-03-29T17:35:10;36.00;;;22.38;;
28577;SDS011;15769;52.248;15.818;2024-03-29T17:40:19;61.92;;;38.20;;
28577;SDS011;15769;52.248;15.818;2024-03-29T17:45:38;86.45;;;48.25;;
28577;SDS011;15769;52.248;15.818;2024-03-29T17:50:51;90.43;;;50.17;;
28577;SDS011;15769;52.248;15.818;2024-03-29T17:56:02;128.07;;;62.65;;
28577;SDS011;15769;52.248;15.818;2024-03-29T18:01:24;173.43;;;80.70;;
28577;SDS011;15769;52.248;15.818;2024-03-29T18:06:41;167.00;;;77.22;;
28577;SDS011;15769;52.248;15.818;2024-03-29T18:12:11;141.15;;;67.10;;
28577;SDS011;15769;52.248;15.818;2024-03-29T18:17:35;101.88;;;51.83;;
28577;SDS011;15769;52.248;15.818;2024-03-29T18:22:46;88.97;;;48.17;;
28577;SDS011;15769;52.248;15.818;2024-03-29T18:33:32;60.13;;;35.35;;
28577;SDS011;15769;52.248;15.818;2024-03-29T18:38:41;53.67;;;29.23;;
28577;SDS011;15769;52.248;15.818;2024-03-29T18:43:55;48.97;;;28.48;;
28577;SDS011;15769;52.248;15.818;2024-03-29T18:49:08;46.78;;;27.77;;
28577;SDS011;15769;52.248;15.818;2024-03-29T18:54:19;47.50;;;27.90;;
28577;SDS011;15769;52.248;15.818;2024-03-29T18:59:46;66.53;;;35.83;;
28577;SDS011;15769;52.248;15.818;2024-03-29T19:04:53;52.70;;;28.80;;
28577;SDS011;15769;52.248;15.818;2024-03-29T19:10:22;41.08;;;22.27;;
28577;SDS011;15769;52.248;15.818;2024-03-29T19:15:24;43.17;;;22.45;;
28577;SDS011;15769;52.248;15.818;2024-03-29T19:20:26;48.17;;;22.13;;
28577;SDS011;15769;52.248;15.818;2024-03-29T19:25:30;53.65;;;25.45;;
28577;SDS011;15769;52.248;15.818;2024-03-29T19:35:36;67.10;;;34.03;;
28577;SDS011;15769;52.248;15.818;2024-03-29T19:40:48;61.15;;;31.65;;
28577;SDS011;15769;52.248;15.818;2024-03-29T19:46:01;56.72;;;28.65;;
28577;SDS011;15769;52.248;15.818;2024-03-29T19:51:04;46.30;;;25.43;;
28577;SDS011;15769;52.248;15.818;2024-03-29T19:56:06;44.88;;;22.30;;
28577;SDS011;15769;52.248;15.818;2024-03-29T20:01:09;29.33;;;15.97;;
28577;SDS011;15769;52.248;15.818;2024-03-29T20:06:13;19.27;;;10.75;;
28577;SDS011;15769;52.248;15.818;2024-03-29T20:11:15;19.93;;;10.70;;
28577;SDS011;15769;52.248;15.818;2024-03-29T20:16:20;31.42;;;15.73;;
28577;SDS011;15769;52.248;15.818;2024-03-29T20:21:24;25.30;;;12.20;;
28577;SDS011;15769;52.248;15.818;2024-03-29T20:26:33;21.35;;;10.38;;
28577;SDS011;15769;52.248;15.818;2024-03-29T20:31:39;16.13;;;7.82;;
28577;SDS011;15769;52.248;15.818;2024-03-29T20:36:47;16.33;;;7.03;;
28577;SDS011;15769;52.248;15.818;2024-03-29T20:41:50;11.68;;;5.25;;
28577;SDS011;15769;52.248;15.818;2024-03-29T20:46:58;11.60;;;5.18;;
28577;SDS011;15769;52.248;15.818;2024-03-29T20:52:05;9.20;;;4.90;;
28577;SDS011;15769;52.248;15.818;2024-03-29T20:57:34;9.68;;;4.85;;
28577;SDS011;15769;52.248;15.818;2024-03-29T21:02:36;12.07;;;5.60;;
28577;SDS011;15769;52.248;15.818;2024-03-29T21:07:57;19.63;;;10.63;;
28577;SDS011;15769;52.248;15.818;2024-03-29T21:12:59;15.32;;;7.93;;
28577;SDS011;15769;52.248;15.818;2024-03-29T21:18:08;26.33;;;13.73;;
28577;SDS011;15769;52.248;15.818;2024-03-29T21:23:10;22.92;;;12.13;;
28577;SDS011;15769;52.248;15.818;2024-03-29T21:28:12;24.15;;;14.30;;
28577;SDS011;15769;52.248;15.818;2024-03-29T21:33:20;22.95;;;15.32;;
28577;SDS011;15769;52.248;15.818;2024-03-29T21:38:42;24.45;;;13.30;;
28577;SDS011;15769;52.248;15.818;2024-03-29T21:43:56;20.60;;;11.85;;
28577;SDS011;15769;52.248;15.818;2024-03-29T21:54:17;16.05;;;8.57;;
28577;SDS011;15769;52.248;15.818;2024-03-29T21:59:46;13.52;;;7.13;;
28577;SDS011;15769;52.248;15.818;2024-03-29T22:04:57;15.82;;;7.90;;
28577;SDS011;15769;52.248;15.818;2024-03-29T22:10:22;12.23;;;7.28;;
28577;SDS011;15769;52.248;15.818;2024-03-29T22:15:30;15.52;;;7.95;;
28577;SDS011;15769;52.248;15.818;2024-03-29T22:20:43;14.35;;;8.57;;
28577;SDS011;15769;52.248;15.818;2024-03-29T22:25:57;16.73;;;8.70;;
28577;SDS011;15769;52.248;15.818;2024-03-29T22:31:07;22.88;;;11.50;;
28577;SDS011;15769;52.248;15.818;2024-03-29T22:36:13;67.22;;;26.33;;
28577;SDS011;15769;52.248;15.818;2024-03-29T22:41:24;67.20;;;25.30;;
28577;SDS011;15769;52.248;15.818;2024-03-29T22:47:16;51.72;;;20.90;;
28577;SDS011;15769;52.248;15.818;2024-03-29T22:52:18;34.30;;;15.35;;
28577;SDS011;15769;52.248;15.818;2024-03-29T22:57:21;31.27;;;14.02;;
28577;SDS011;15769;52.248;15.818;2024-03-29T23:02:28;33.72;;;15.10;;
28577;SDS011;15769;52.248;15.818;2024-03-29T23:07:30;32.88;;;15.68;;
28577;SDS011;15769;52.248;15.818;2024-03-29T23:12:32;34.55;;;14.05;;
28577;SDS011;15769;52.248;15.818;2024-03-29T23:17:34;35.10;;;14.95;;
28577;SDS011;15769;52.248;15.818;2024-03-29T23:22:36;33.95;;;13.10;;
28577;SDS011;15769;52.248;15.818;2024-03-29T23:27:39;24.30;;;10.80;;
28577;SDS011;15769;52.248;15.818;2024-03-29T23:32:41;17.63;;;7.97;;
28577;SDS011;15769;52.248;15.818;2024-03-29T23:37:43;15.07;;;6.97;;
28577;SDS011;15769;52.248;15.818;2024-03-29T23:42:45;13.77;;;7.05;;
28577;SDS011;15769;52.248;15.818;2024-03-29T23:47:47;15.88;;;7.60;;
28577;SDS011;15769;52.248;15.818;2024-03-29T23:52:49;12.35;;;6.43;;
28577;SDS011;15769;52.248;15.818;2024-03-29T23:57:51;13.10;;;6.88;;
